sensor_id;sensor_type;location;lat;lon;timestamp;temperature;humidity
45115;DHT22;30877;43.706;10.780;2023-07-30T00:02:17;24.70;96.70
45115;DHT22;30877;43.706;10.780;2023-07-30T00:04:46;24.70;96.70
45115;DHT22;30877;43.706;10.780;2023-07-30T00:07:14;24.60;96.70
45115;DHT22;30877;43.706;10.780;2023-07-30T00:09:42;24.60;96.70
45115;DHT22;30877;43.706;10.780;2023-07-30T00:12:11;24.60;96.70
45115;DHT22;30877;43.706;10.780;2023-07-30T00:14:39;24.50;96.70
45115;DHT22;30877;43.706;10.780;2023-07-30T00:17:07;24.50;96.70
45115;DHT22;30877;43.706;10.780;2023-07-30T00:19:35;24.50;96.70
45115;DHT22;30877;43.706;10.780;2023-07-30T00:22:03;24.50;96.70
45115;DHT22;30877;43.706;10.780;2023-07-30T00:24:31;24.50;96.70
45115;DHT22;30877;43.706;10.780;2023-07-30T00:26:59;24.50;96.70
45115;DHT22;30877;43.706;10.780;2023-07-30T00:29:29;24.60;96.70
45115;DHT22;30877;43.706;10.780;2023-07-30T00:31:57;24.70;96.70
45115;DHT22;30877;43.706;10.780;2023-07-30T00:34:24;24.70;96.70
45115;DHT22;30877;43.706;10.780;2023-07-30T00:36:52;24.70;96.70
45115;DHT22;30877;43.706;10.780;2023-07-30T00:39:20;24.80;96.70
45115;DHT22;30877;43.706;10.780;2023-07-30T00:41:48;24.70;96.70
45115;DHT22;30877;43.706;10.780;2023-07-30T00:44:16;24.70;96.70
45115;DHT22;30877;43.706;10.780;2023-07-30T00:46:46;24.70;96.70
45115;DHT22;30877;43.706;10.780;2023-07-30T00:49:14;24.60;96.70
45115;DHT22;30877;43.706;10.780;2023-07-30T00:51:42;24.50;96.70
45115;DHT22;30877;43.706;10.780;2023-07-30T00:54:12;24.40;96.70
45115;DHT22;30877;43.706;10.780;2023-07-30T00:56:45;24.40;96.70
45115;DHT22;30877;43.706;10.780;2023-07-30T00:59:16;24.50;96.70
45115;DHT22;30877;43.706;10.780;2023-07-30T01:01:46;24.50;96.70
45115;DHT22;30877;43.706;10.780;2023-07-30T01:04:15;24.70;96.70
45115;DHT22;30877;43.706;10.780;2023-07-30T01:06:43;24.70;96.70
45115;DHT22;30877;43.706;10.780;2023-07-30T01:09:11;24.70;96.70
45115;DHT22;30877;43.706;10.780;2023-07-30T01:11:39;24.70;96.70
45115;DHT22;30877;43.706;10.780;2023-07-30T01:14:09;24.80;96.70
45115;DHT22;30877;43.706;10.780;2023-07-30T01:16:38;24.90;96.70
45115;DHT22;30877;43.706;10.780;2023-07-30T01:19:07;25.00;96.70
45115;DHT22;30877;43.706;10.780;2023-07-30T01:21:37;25.20;96.70
45115;DHT22;30877;43.706;10.780;2023-07-30T01:24:05;25.30;96.70
45115;DHT22;30877;43.706;10.780;2023-07-30T01:26:39;25.40;96.70
45115;DHT22;30877;43.706;10.780;2023-07-30T01:29:11;25.60;96.70
45115;DHT22;30877;43.706;10.780;2023-07-30T01:31:41;25.70;96.70
45115;DHT22;30877;43.706;10.780;2023-07-30T01:34:11;25.70;96.70
45115;DHT22;30877;43.706;10.780;2023-07-30T01:36:41;25.80;96.70
45115;DHT22;30877;43.706;10.780;2023-07-30T01:39:11;25.80;96.70
45115;DHT22;30877;43.706;10.780;2023-07-30T01:41:39;25.90;96.70
45115;DHT22;30877;43.706;10.780;2023-07-30T01:44:07;25.80;96.70
45115;DHT22;30877;43.706;10.780;2023-07-30T01:46:35;25.80;96.70
45115;DHT22;30877;43.706;10.780;2023-07-30T01:49:03;25.70;96.70
45115;DHT22;30877;43.706;10.780;2023-07-30T01:51:31;25.70;96.70
45115;DHT22;30877;43.706;10.780;2023-07-30T01:54:01;25.70;96.70
45115;DHT22;30877;43.706;10.780;2023-07-30T01:56:29;25.50;96.70
45115;DHT22;30877;43.706;10.780;2023-07-30T01:58:57;25.40;96.70
45115;DHT22;30877;43.706;10.780;2023-07-30T02:01:25;25.50;96.70
45115;DHT22;30877;43.706;10.780;2023-07-30T02:03:53;25.50;96.70
45115;DHT22;30877;43.706;10.780;2023-07-30T02:06:21;25.60;96.70
45115;DHT22;30877;43.706;10.780;2023-07-30T02:08:49;25.60;96.70
45115;DHT22;30877;43.706;10.780;2023-07-30T02:11:18;25.60;96.70
45115;DHT22;30877;43.706;10.780;2023-07-30T02:13:46;25.60;96.70
45115;DHT22;30877;43.706;10.780;2023-07-30T02:16:14;25.50;96.70
45115;DHT22;30877;43.706;10.780;2023-07-30T02:18:42;25.40;96.70
45115;DHT22;30877;43.706;10.780;2023-07-30T02:21:10;25.30;96.70
45115;DHT22;30877;43.706;10.780;2023-07-30T02:23:38;25.30;96.70
45115;DHT22;30877;43.706;10.780;2023-07-30T02:26:06;25.20;96.70
45115;DHT22;30877;43.706;10.780;2023-07-30T02:28:35;25.20;96.70
45115;DHT22;30877;43.706;10.780;2023-07-30T02:31:03;25.20;96.70
45115;DHT22;30877;43.706;10.780;2023-07-30T02:33:37;25.20;96.70
45115;DHT22;30877;43.706;10.780;2023-07-30T02:36:06;25.00;96.70
45115;DHT22;30877;43.706;10.780;2023-07-30T02:38:36;25.00;96.70
45115;DHT22;30877;43.706;10.780;2023-07-30T02:41:06;25.00;96.70
45115;DHT22;30877;43.706;10.780;2023-07-30T02:43:37;24.90;96.70
45115;DHT22;30877;43.706;10.780;2023-07-30T02:46:07;24.80;96.70
45115;DHT22;30877;43.706;10.780;2023-07-30T02:48:36;24.80;96.70
45115;DHT22;30877;43.706;10.780;2023-07-30T02:51:06;24.70;96.70
45115;DHT22;30877;43.706;10.780;2023-07-30T02:53:36;24.80;96.70
45115;DHT22;30877;43.706;10.780;2023-07-30T02:56:05;24.70;96.70
45115;DHT22;30877;43.706;10.780;2023-07-30T02:58:36;24.60;96.70
45115;DHT22;30877;43.706;10.780;2023-07-30T03:01:07;24.50;96.70
45115;DHT22;30877;43.706;10.780;2023-07-30T03:03:38;24.50;96.70
45115;DHT22;30877;43.706;10.780;2023-07-30T03:06:07;24.50;96.70
45115;DHT22;30877;43.706;10.780;2023-07-30T03:08:37;24.60;96.70
45115;DHT22;30877;43.706;10.780;2023-07-30T03:11:07;24.70;96.70
45115;DHT22;30877;43.706;10.780;2023-07-30T03:13:38;24.70;96.70
45115;DHT22;30877;43.706;10.780;2023-07-30T03:16:08;24.70;96.70
45115;DHT22;30877;43.706;10.780;2023-07-30T03:18:40;24.60;96.70
45115;DHT22;30877;43.706;10.780;2023-07-30T03:21:10;24.50;96.70
45115;DHT22;30877;43.706;10.780;2023-07-30T03:23:40;24.60;96.70
45115;DHT22;30877;43.706;10.780;2023-07-30T03:26:12;24.70;96.70
45115;DHT22;30877;43.706;10.780;2023-07-30T03:28:43;24.70;96.70
45115;DHT22;30877;43.706;10.780;2023-07-30T03:31:13;24.70;96.70
45115;DHT22;30877;43.706;10.780;2023-07-30T03:33:42;24.70;96.70
45115;DHT22;30877;43.706;10.780;2023-07-30T03:36:12;24.70;96.70
45115;DHT22;30877;43.706;10.780;2023-07-30T03:38:43;24.60;96.70
45115;DHT22;30877;43.706;10.780;2023-07-30T03:41:12;24.60;96.70
45115;DHT22;30877;43.706;10.780;2023-07-30T03:43:41;24.60;96.70
45115;DHT22;30877;43.706;10.780;2023-07-30T03:46:10;24.60;96.70
45115;DHT22;30877;43.706;10.780;2023-07-30T03:48:38;24.70;96.70
45115;DHT22;30877;43.706;10.780;2023-07-30T03:51:10;24.70;96.70
45115;DHT22;30877;43.706;10.780;2023-07-30T03:53:40;24.70;96.70
45115;DHT22;30877;43.706;10.780;2023-07-30T03:56:12;24.70;96.70
45115;DHT22;30877;43.706;10.780;2023-07-30T03:58:43;24.60;96.70
45115;DHT22;30877;43.706;10.780;2023-07-30T04:01:12;24.50;96.70
45115;DHT22;30877;43.706;10.780;2023-07-30T04:03:42;24.50;96.70
45115;DHT22;30877;43.706;10.780;2023-07-30T04:06:11;24.50;96.70
45115;DHT22;30877;43.706;10.780;2023-07-30T04:08:40;24.50;96.70
45115;DHT22;30877;43.706;10.780;2023-07-30T04:11:09;24.60;96.70
45115;DHT22;30877;43.706;10.780;2023-07-30T04:13:38;24.60;96.70
45115;DHT22;30877;43.706;10.780;2023-07-30T04:16:10;24.50;96.70
45115;DHT22;30877;43.706;10.780;2023-07-30T04:18:40;24.40;96.70
45115;DHT22;30877;43.706;10.780;2023-07-30T04:21:09;24.40;96.70
45115;DHT22;30877;43.706;10.780;2023-07-30T04:23:38;24.50;96.70
45115;DHT22;30877;43.706;10.780;2023-07-30T04:26:08;24.50;96.70
45115;DHT22;30877;43.706;10.780;2023-07-30T04:28:37;24.60;96.70
45115;DHT22;30877;43.706;10.780;2023-07-30T04:31:06;24.60;96.70
45115;DHT22;30877;43.706;10.780;2023-07-30T04:33:37;24.60;96.70
45115;DHT22;30877;43.706;10.780;2023-07-30T04:36:06;24.50;96.70
45115;DHT22;30877;43.706;10.780;2023-07-30T04:38:36;24.40;96.70
45115;DHT22;30877;43.706;10.780;2023-07-30T04:41:05;24.40;96.70
45115;DHT22;30877;43.706;10.780;2023-07-30T04:43:41;24.30;96.70
45115;DHT22;30877;43.706;10.780;2023-07-30T04:46:10;24.30;96.70
45115;DHT22;30877;43.706;10.780;2023-07-30T04:48:41;24.40;96.70
45115;DHT22;30877;43.706;10.780;2023-07-30T04:51:12;24.40;96.70
45115;DHT22;30877;43.706;10.780;2023-07-30T04:53:42;24.40;96.70
45115;DHT22;30877;43.706;10.780;2023-07-30T04:56:11;24.40;96.70
45115;DHT22;30877;43.706;10.780;2023-07-30T04:58:40;24.40;96.70
45115;DHT22;30877;43.706;10.780;2023-07-30T05:01:10;24.40;96.70
45115;DHT22;30877;43.706;10.780;2023-07-30T05:03:41;24.30;96.70
45115;DHT22;30877;43.706;10.780;2023-07-30T05:06:10;24.20;96.70
45115;DHT22;30877;43.706;10.780;2023-07-30T05:08:39;24.30;96.70
45115;DHT22;30877;43.706;10.780;2023-07-30T05:11:08;24.30;96.70
45115;DHT22;30877;43.706;10.780;2023-07-30T05:13:37;24.40;96.70
45115;DHT22;30877;43.706;10.780;2023-07-30T05:16:07;24.30;96.70
45115;DHT22;30877;43.706;10.780;2023-07-30T05:18:36;24.30;96.70
45115;DHT22;30877;43.706;10.780;2023-07-30T05:21:06;24.40;96.70
45115;DHT22;30877;43.706;10.780;2023-07-30T05:23:36;24.40;96.70
45115;DHT22;30877;43.706;10.780;2023-07-30T05:26:05;24.40;96.70
45115;DHT22;30877;43.706;10.780;2023-07-30T05:28:34;24.50;96.70
45115;DHT22;30877;43.706;10.780;2023-07-30T05:31:03;24.60;96.70
45115;DHT22;30877;43.706;10.780;2023-07-30T05:33:31;24.70;96.70
45115;DHT22;30877;43.706;10.780;2023-07-30T05:35:59;24.70;96.70
45115;DHT22;30877;43.706;10.780;2023-07-30T05:38:30;24.70;96.70
45115;DHT22;30877;43.706;10.780;2023-07-30T05:40:58;24.70;96.70
45115;DHT22;30877;43.706;10.780;2023-07-30T05:43:26;24.70;96.70
45115;DHT22;30877;43.706;10.780;2023-07-30T05:45:55;24.70;96.70
45115;DHT22;30877;43.706;10.780;2023-07-30T05:48:23;24.60;96.70
45115;DHT22;30877;43.706;10.780;2023-07-30T05:50:51;24.70;96.70
45115;DHT22;30877;43.706;10.780;2023-07-30T05:53:20;24.70;96.70
45115;DHT22;30877;43.706;10.780;2023-07-30T05:55:50;24.70;96.70
45115;DHT22;30877;43.706;10.780;2023-07-30T05:58:18;24.70;96.70
45115;DHT22;30877;43.706;10.780;2023-07-30T06:00:47;24.80;96.70
45115;DHT22;30877;43.706;10.780;2023-07-30T06:03:15;24.90;96.70
45115;DHT22;30877;43.706;10.780;2023-07-30T06:05:44;24.90;96.70
45115;DHT22;30877;43.706;10.780;2023-07-30T06:08:12;24.90;96.70
45115;DHT22;30877;43.706;10.780;2023-07-30T06:10:41;25.00;96.70
45115;DHT22;30877;43.706;10.780;2023-07-30T06:13:11;25.00;96.70
45115;DHT22;30877;43.706;10.780;2023-07-30T06:15:39;25.00;96.70
45115;DHT22;30877;43.706;10.780;2023-07-30T06:18:08;25.00;96.70
45115;DHT22;30877;43.706;10.780;2023-07-30T06:20:36;25.10;96.70
45115;DHT22;30877;43.706;10.780;2023-07-30T06:23:05;25.10;96.70
45115;DHT22;30877;43.706;10.780;2023-07-30T06:25:33;25.10;96.70
45115;DHT22;30877;43.706;10.780;2023-07-30T06:28:01;25.20;96.70
45115;DHT22;30877;43.706;10.780;2023-07-30T06:30:33;25.40;96.70
45115;DHT22;30877;43.706;10.780;2023-07-30T06:33:02;25.40;96.70
45115;DHT22;30877;43.706;10.780;2023-07-30T06:35:30;25.50;96.70
45115;DHT22;30877;43.706;10.780;2023-07-30T06:37:58;25.50;96.70
45115;DHT22;30877;43.706;10.780;2023-07-30T06:40:27;25.50;96.70
45115;DHT22;30877;43.706;10.780;2023-07-30T06:42:55;25.50;96.70
45115;DHT22;30877;43.706;10.780;2023-07-30T06:45:24;25.40;96.70
45115;DHT22;30877;43.706;10.780;2023-07-30T06:47:54;25.50;96.70
45115;DHT22;30877;43.706;10.780;2023-07-30T06:50:25;25.60;96.70
45115;DHT22;30877;43.706;10.780;2023-07-30T06:52:53;25.60;96.70
45115;DHT22;30877;43.706;10.780;2023-07-30T06:55:22;25.80;96.70
45115;DHT22;30877;43.706;10.780;2023-07-30T06:57:50;25.90;96.70
45115;DHT22;30877;43.706;10.780;2023-07-30T07:00:19;26.00;96.70
45115;DHT22;30877;43.706;10.780;2023-07-30T07:02:50;26.00;96.70
45115;DHT22;30877;43.706;10.780;2023-07-30T07:05:20;26.00;96.70
45115;DHT22;30877;43.706;10.780;2023-07-30T07:07:48;25.90;96.70
45115;DHT22;30877;43.706;10.780;2023-07-30T07:10:17;25.90;96.70
45115;DHT22;30877;43.706;10.780;2023-07-30T07:12:45;26.00;96.70
45115;DHT22;30877;43.706;10.780;2023-07-30T07:15:14;26.10;96.70
45115;DHT22;30877;43.706;10.780;2023-07-30T07:17:42;26.20;96.70
45115;DHT22;30877;43.706;10.780;2023-07-30T07:20:11;26.20;96.70
45115;DHT22;30877;43.706;10.780;2023-07-30T07:22:41;26.20;96.70
45115;DHT22;30877;43.706;10.780;2023-07-30T07:25:09;26.30;96.70
45115;DHT22;30877;43.706;10.780;2023-07-30T07:27:38;26.40;96.70
45115;DHT22;30877;43.706;10.780;2023-07-30T07:30:08;26.40;96.70
45115;DHT22;30877;43.706;10.780;2023-07-30T07:32:36;26.40;96.70
45115;DHT22;30877;43.706;10.780;2023-07-30T07:35:07;26.50;96.70
45115;DHT22;30877;43.706;10.780;2023-07-30T07:37:35;26.50;96.70
45115;DHT22;30877;43.706;10.780;2023-07-30T07:40:07;26.60;96.70
45115;DHT22;30877;43.706;10.780;2023-07-30T07:42:38;26.60;96.70
45115;DHT22;30877;43.706;10.780;2023-07-30T07:45:07;26.60;96.70
45115;DHT22;30877;43.706;10.780;2023-07-30T07:47:36;26.60;96.70
45115;DHT22;30877;43.706;10.780;2023-07-30T07:50:06;26.70;96.70
45115;DHT22;30877;43.706;10.780;2023-07-30T07:52:34;26.80;96.70
45115;DHT22;30877;43.706;10.780;2023-07-30T07:55:05;26.90;96.70
45115;DHT22;30877;43.706;10.780;2023-07-30T07:57:34;27.00;96.70
45115;DHT22;30877;43.706;10.780;2023-07-30T08:00:06;27.10;96.70
45115;DHT22;30877;43.706;10.780;2023-07-30T08:02:38;27.10;96.70
45115;DHT22;30877;43.706;10.780;2023-07-30T08:05:07;27.00;96.70
45115;DHT22;30877;43.706;10.780;2023-07-30T08:07:35;26.90;96.70
45115;DHT22;30877;43.706;10.780;2023-07-30T08:10:06;26.90;96.70
45115;DHT22;30877;43.706;10.780;2023-07-30T08:12:35;26.90;96.70
45115;DHT22;30877;43.706;10.780;2023-07-30T08:15:04;27.00;96.70
45115;DHT22;30877;43.706;10.780;2023-07-30T08:17:32;27.00;96.70
45115;DHT22;30877;43.706;10.780;2023-07-30T08:20:00;27.20;96.70
45115;DHT22;30877;43.706;10.780;2023-07-30T08:22:28;27.40;96.70
45115;DHT22;30877;43.706;10.780;2023-07-30T08:24:56;27.60;96.70
45115;DHT22;30877;43.706;10.780;2023-07-30T08:27:26;27.70;96.70
45115;DHT22;30877;43.706;10.780;2023-07-30T08:29:54;27.80;96.70
45115;DHT22;30877;43.706;10.780;2023-07-30T08:32:22;27.80;96.70
45115;DHT22;30877;43.706;10.780;2023-07-30T08:34:50;27.90;96.70
45115;DHT22;30877;43.706;10.780;2023-07-30T08:37:19;28.00;96.70
45115;DHT22;30877;43.706;10.780;2023-07-30T08:39:47;28.10;96.70
45115;DHT22;30877;43.706;10.780;2023-07-30T08:42:16;28.20;96.70
45115;DHT22;30877;43.706;10.780;2023-07-30T08:44:46;28.40;96.70
45115;DHT22;30877;43.706;10.780;2023-07-30T08:47:16;28.30;96.70
45115;DHT22;30877;43.706;10.780;2023-07-30T08:49:44;28.30;96.70
45115;DHT22;30877;43.706;10.780;2023-07-30T08:52:16;28.30;96.70
45115;DHT22;30877;43.706;10.780;2023-07-30T08:54:47;28.30;96.70
45115;DHT22;30877;43.706;10.780;2023-07-30T08:57:20;28.30;96.70
45115;DHT22;30877;43.706;10.780;2023-07-30T08:59:53;28.40;96.70
45115;DHT22;30877;43.706;10.780;2023-07-30T09:02:31;28.40;96.70
45115;DHT22;30877;43.706;10.780;2023-07-30T09:05:01;28.50;96.70
45115;DHT22;30877;43.706;10.780;2023-07-30T09:07:30;28.70;96.70
45115;DHT22;30877;43.706;10.780;2023-07-30T09:09:58;28.80;96.70
45115;DHT22;30877;43.706;10.780;2023-07-30T09:12:29;28.90;96.70
45115;DHT22;30877;43.706;10.780;2023-07-30T09:14:59;29.10;96.70
45115;DHT22;30877;43.706;10.780;2023-07-30T09:17:28;29.20;96.70
45115;DHT22;30877;43.706;10.780;2023-07-30T09:19:58;29.10;96.70
45115;DHT22;30877;43.706;10.780;2023-07-30T09:22:27;29.00;96.70
45115;DHT22;30877;43.706;10.780;2023-07-30T09:24:56;29.00;96.70
45115;DHT22;30877;43.706;10.780;2023-07-30T09:27:26;29.10;96.70
45115;DHT22;30877;43.706;10.780;2023-07-30T09:29:55;29.10;96.70
45115;DHT22;30877;43.706;10.780;2023-07-30T09:32:27;28.90;96.70
45115;DHT22;30877;43.706;10.780;2023-07-30T09:35:04;28.90;96.70
45115;DHT22;30877;43.706;10.780;2023-07-30T09:37:37;28.80;96.70
45115;DHT22;30877;43.706;10.780;2023-07-30T09:40:08;28.80;96.70
45115;DHT22;30877;43.706;10.780;2023-07-30T09:42:36;28.90;96.70
45115;DHT22;30877;43.706;10.780;2023-07-30T09:45:08;28.90;96.70
45115;DHT22;30877;43.706;10.780;2023-07-30T09:47:48;28.80;96.70
45115;DHT22;30877;43.706;10.780;2023-07-30T09:50:17;28.80;96.70
45115;DHT22;30877;43.706;10.780;2023-07-30T09:52:45;28.80;96.70
45115;DHT22;30877;43.706;10.780;2023-07-30T09:55:16;28.80;96.70
45115;DHT22;30877;43.706;10.780;2023-07-30T09:57:47;28.90;96.70
45115;DHT22;30877;43.706;10.780;2023-07-30T10:00:15;29.10;96.70
45115;DHT22;30877;43.706;10.780;2023-07-30T10:02:47;29.20;96.70
45115;DHT22;30877;43.706;10.780;2023-07-30T10:05:17;29.10;96.70
45115;DHT22;30877;43.706;10.780;2023-07-30T10:07:51;29.30;96.70
45115;DHT22;30877;43.706;10.780;2023-07-30T10:10:20;29.40;96.70
45115;DHT22;30877;43.706;10.780;2023-07-30T10:12:50;29.30;96.70
45115;DHT22;30877;43.706;10.780;2023-07-30T10:15:19;29.30;96.70
45115;DHT22;30877;43.706;10.780;2023-07-30T10:17:56;29.30;96.70
45115;DHT22;30877;43.706;10.780;2023-07-30T10:20:30;29.20;96.70
45115;DHT22;30877;43.706;10.780;2023-07-30T10:23:00;29.10;96.70
45115;DHT22;30877;43.706;10.780;2023-07-30T10:25:29;29.00;96.70
45115;DHT22;30877;43.706;10.780;2023-07-30T10:27:58;29.00;96.70
45115;DHT22;30877;43.706;10.780;2023-07-30T10:30:32;29.00;96.70
45115;DHT22;30877;43.706;10.780;2023-07-30T10:33:03;29.40;96.70
45115;DHT22;30877;43.706;10.780;2023-07-30T10:35:38;29.70;96.70
45115;DHT22;30877;43.706;10.780;2023-07-30T10:38:19;29.70;96.70
45115;DHT22;30877;43.706;10.780;2023-07-30T10:41:04;29.80;96.70
45115;DHT22;30877;43.706;10.780;2023-07-30T10:43:35;29.80;96.70
45115;DHT22;30877;43.706;10.780;2023-07-30T10:46:04;29.90;96.70
45115;DHT22;30877;43.706;10.780;2023-07-30T10:48:35;29.80;96.70
45115;DHT22;30877;43.706;10.780;2023-07-30T10:51:05;29.70;96.70
45115;DHT22;30877;43.706;10.780;2023-07-30T10:53:34;29.40;96.70
45115;DHT22;30877;43.706;10.780;2023-07-30T10:56:07;29.30;96.70
45115;DHT22;30877;43.706;10.780;2023-07-30T10:58:37;29.60;96.70
45115;DHT22;30877;43.706;10.780;2023-07-30T11:01:07;29.90;96.70
45115;DHT22;30877;43.706;10.780;2023-07-30T11:03:37;29.90;96.70
45115;DHT22;30877;43.706;10.780;2023-07-30T11:06:08;29.60;96.70
45115;DHT22;30877;43.706;10.780;2023-07-30T11:08:37;29.80;96.70
45115;DHT22;30877;43.706;10.780;2023-07-30T11:11:07;30.00;96.70
45115;DHT22;30877;43.706;10.780;2023-07-30T11:13:36;30.10;96.70
45115;DHT22;30877;43.706;10.780;2023-07-30T11:16:05;30.00;96.70
45115;DHT22;30877;43.706;10.780;2023-07-30T11:18:37;30.20;96.70
45115;DHT22;30877;43.706;10.780;2023-07-30T11:21:05;30.40;96.70
45115;DHT22;30877;43.706;10.780;2023-07-30T11:23:35;30.40;96.70
45115;DHT22;30877;43.706;10.780;2023-07-30T11:26:05;30.50;96.70
45115;DHT22;30877;43.706;10.780;2023-07-30T11:28:35;30.60;96.70
45115;DHT22;30877;43.706;10.780;2023-07-30T11:31:06;30.70;96.70
45115;DHT22;30877;43.706;10.780;2023-07-30T11:33:39;30.90;96.70
45115;DHT22;30877;43.706;10.780;2023-07-30T11:36:10;30.80;96.70
45115;DHT22;30877;43.706;10.780;2023-07-30T11:38:40;30.60;96.70
45115;DHT22;30877;43.706;10.780;2023-07-30T11:41:10;30.30;96.70
45115;DHT22;30877;43.706;10.780;2023-07-30T11:43:39;30.10;96.70
45115;DHT22;30877;43.706;10.780;2023-07-30T11:46:09;30.00;96.70
45115;DHT22;30877;43.706;10.780;2023-07-30T11:48:41;29.90;96.70
45115;DHT22;30877;43.706;10.780;2023-07-30T11:51:19;30.40;96.70
45115;DHT22;30877;43.706;10.780;2023-07-30T11:53:51;30.60;96.70
45115;DHT22;30877;43.706;10.780;2023-07-30T11:56:21;30.80;96.70
45115;DHT22;30877;43.706;10.780;2023-07-30T11:58:53;30.90;96.70
45115;DHT22;30877;43.706;10.780;2023-07-30T12:01:23;30.90;96.70
45115;DHT22;30877;43.706;10.780;2023-07-30T12:03:55;31.00;96.70
45115;DHT22;30877;43.706;10.780;2023-07-30T12:06:24;31.10;96.70
45115;DHT22;30877;43.706;10.780;2023-07-30T12:09:10;31.20;96.70
45115;DHT22;30877;43.706;10.780;2023-07-30T12:11:48;31.20;96.70
45115;DHT22;30877;43.706;10.780;2023-07-30T12:14:17;31.20;96.70
45115;DHT22;30877;43.706;10.780;2023-07-30T12:16:46;31.10;96.70
45115;DHT22;30877;43.706;10.780;2023-07-30T12:19:16;31.20;96.70
45115;DHT22;30877;43.706;10.780;2023-07-30T12:21:44;31.10;96.70
45115;DHT22;30877;43.706;10.780;2023-07-30T12:24:13;31.30;96.70
45115;DHT22;30877;43.706;10.780;2023-07-30T12:26:41;31.50;96.70
45115;DHT22;30877;43.706;10.780;2023-07-30T12:29:10;31.20;96.70
45115;DHT22;30877;43.706;10.780;2023-07-30T12:31:38;31.20;96.70
45115;DHT22;30877;43.706;10.780;2023-07-30T12:34:07;31.00;96.70
45115;DHT22;30877;43.706;10.780;2023-07-30T12:36:37;31.20;96.70
45115;DHT22;30877;43.706;10.780;2023-07-30T12:39:06;31.40;96.70
45115;DHT22;30877;43.706;10.780;2023-07-30T12:41:36;31.10;96.70
45115;DHT22;30877;43.706;10.780;2023-07-30T12:44:05;31.00;96.70
45115;DHT22;30877;43.706;10.780;2023-07-30T12:46:33;31.20;96.70
45115;DHT22;30877;43.706;10.780;2023-07-30T12:49:02;31.30;96.70
45115;DHT22;30877;43.706;10.780;2023-07-30T12:51:33;31.30;96.70
45115;DHT22;30877;43.706;10.780;2023-07-30T12:54:03;31.40;96.70
45115;DHT22;30877;43.706;10.780;2023-07-30T12:56:32;31.40;96.70
45115;DHT22;30877;43.706;10.780;2023-07-30T12:59:04;31.50;96.70
45115;DHT22;30877;43.706;10.780;2023-07-30T13:01:32;31.50;96.70
45115;DHT22;30877;43.706;10.780;2023-07-30T13:04:01;31.30;96.70
45115;DHT22;30877;43.706;10.780;2023-07-30T13:06:29;31.40;96.70
45115;DHT22;30877;43.706;10.780;2023-07-30T13:08:57;31.50;96.70
45115;DHT22;30877;43.706;10.780;2023-07-30T13:11:28;31.50;96.70
45115;DHT22;30877;43.706;10.780;2023-07-30T13:13:57;31.50;96.70
45115;DHT22;30877;43.706;10.780;2023-07-30T13:16:28;31.40;96.70
45115;DHT22;30877;43.706;10.780;2023-07-30T13:18:58;31.50;96.70
45115;DHT22;30877;43.706;10.780;2023-07-30T13:21:27;31.70;96.70
45115;DHT22;30877;43.706;10.780;2023-07-30T13:23:55;31.70;96.70
45115;DHT22;30877;43.706;10.780;2023-07-30T13:26:24;31.70;96.70
45115;DHT22;30877;43.706;10.780;2023-07-30T13:28:54;31.70;96.70
45115;DHT22;30877;43.706;10.780;2023-07-30T13:31:22;31.50;96.70
45115;DHT22;30877;43.706;10.780;2023-07-30T13:33:51;31.50;96.70
45115;DHT22;30877;43.706;10.780;2023-07-30T13:36:20;31.80;96.70
45115;DHT22;30877;43.706;10.780;2023-07-30T13:38:48;31.90;96.70
45115;DHT22;30877;43.706;10.780;2023-07-30T13:41:17;32.30;96.70
45115;DHT22;30877;43.706;10.780;2023-07-30T13:43:45;32.50;96.70
45115;DHT22;30877;43.706;10.780;2023-07-30T13:46:15;32.60;96.70
45115;DHT22;30877;43.706;10.780;2023-07-30T13:48:43;32.50;96.70
45115;DHT22;30877;43.706;10.780;2023-07-30T13:51:12;32.70;96.70
45115;DHT22;30877;43.706;10.780;2023-07-30T13:53:40;32.60;96.70
45115;DHT22;30877;43.706;10.780;2023-07-30T13:56:09;32.70;96.70
45115;DHT22;30877;43.706;10.780;2023-07-30T13:58:38;32.80;96.70
45115;DHT22;30877;43.706;10.780;2023-07-30T14:01:07;33.00;96.70
45115;DHT22;30877;43.706;10.780;2023-07-30T14:03:39;33.10;96.70
45115;DHT22;30877;43.706;10.780;2023-07-30T14:06:07;33.20;96.70
45115;DHT22;30877;43.706;10.780;2023-07-30T14:08:36;33.20;96.70
45115;DHT22;30877;43.706;10.780;2023-07-30T14:11:04;33.40;96.70
45115;DHT22;30877;43.706;10.780;2023-07-30T14:13:32;32.80;96.70
45115;DHT22;30877;43.706;10.780;2023-07-30T14:16:01;32.50;96.70
45115;DHT22;30877;43.706;10.780;2023-07-30T14:18:29;32.30;96.70
45115;DHT22;30877;43.706;10.780;2023-07-30T14:20:59;32.10;96.70
45115;DHT22;30877;43.706;10.780;2023-07-30T14:23:27;31.60;96.70
45115;DHT22;30877;43.706;10.780;2023-07-30T14:25:56;31.80;96.70
45115;DHT22;30877;43.706;10.780;2023-07-30T14:28:24;32.60;96.70
45115;DHT22;30877;43.706;10.780;2023-07-30T14:30:53;32.90;96.70
45115;DHT22;30877;43.706;10.780;2023-07-30T14:33:21;33.20;96.70
45115;DHT22;30877;43.706;10.780;2023-07-30T14:35:50;32.90;96.70
45115;DHT22;30877;43.706;10.780;2023-07-30T14:38:20;33.40;96.70
45115;DHT22;30877;43.706;10.780;2023-07-30T14:40:48;33.50;96.70
45115;DHT22;30877;43.706;10.780;2023-07-30T14:43:17;33.10;96.70
45115;DHT22;30877;43.706;10.780;2023-07-30T14:45:45;33.40;96.70
45115;DHT22;30877;43.706;10.780;2023-07-30T14:48:13;33.50;96.70
45115;DHT22;30877;43.706;10.780;2023-07-30T14:50:42;33.60;96.70
45115;DHT22;30877;43.706;10.780;2023-07-30T14:53:10;33.80;96.70
45115;DHT22;30877;43.706;10.780;2023-07-30T14:55:40;33.90;96.70
45115;DHT22;30877;43.706;10.780;2023-07-30T14:58:09;34.00;96.70
45115;DHT22;30877;43.706;10.780;2023-07-30T15:00:37;34.40;96.70
45115;DHT22;30877;43.706;10.780;2023-07-30T15:03:06;34.80;96.70
45115;DHT22;30877;43.706;10.780;2023-07-30T15:05:34;34.40;96.70
45115;DHT22;30877;43.706;10.780;2023-07-30T15:08:04;34.60;96.70
45115;DHT22;30877;43.706;10.780;2023-07-30T15:10:32;34.40;96.70
45115;DHT22;30877;43.706;10.780;2023-07-30T15:13:02;34.70;96.70
45115;DHT22;30877;43.706;10.780;2023-07-30T15:15:30;34.90;96.70
45115;DHT22;30877;43.706;10.780;2023-07-30T15:17:59;34.80;96.70
45115;DHT22;30877;43.706;10.780;2023-07-30T15:20:27;34.60;96.70
45115;DHT22;30877;43.706;10.780;2023-07-30T15:22:56;34.50;96.70
45115;DHT22;30877;43.706;10.780;2023-07-30T15:25:24;34.70;96.70
45115;DHT22;30877;43.706;10.780;2023-07-30T15:27:53;34.80;96.70
45115;DHT22;30877;43.706;10.780;2023-07-30T15:30:23;34.60;96.70